Time;durP1;ratioP1;P1;durP2;ratioP2;P2;SDS_P1;SDS_P2;PMS_P1;PMS_P2;Temp;Humidity;BMP_temperature;BMP_pressure;BME280_temperature;BME280_humidity;BME280_pressure;Samples;Min_cycle;Max_cycle;Signal;HPM_P1;HPM_P2
2021/01/07 00:02:14;;;;;;;129.97;56.53;;;;;;;-0.47;78.60;96411.92;1857773;77;25721;-92
2021/01/07 00:04:41;;;;;;;133.05;60.75;;;;;;;-0.64;78.52;96414.27;1857856;77;25773;-85
2021/01/07 00:07:09;;;;;;;146.25;65.75;;;;;;;-0.76;78.65;96408.97;1857868;77;25463;-90
2021/01/07 00:09:36;;;;;;;140.20;64.65;;;;;;;-0.80;78.76;96415.58;1857798;77;25783;-84
2021/01/07 00:12:04;;;;;;;140.70;64.67;;;;;;;-0.76;78.93;96415.10;1857750;77;28537;-90
2021/01/07 00:14:32;;;;;;;162.62;71.90;;;;;;;-0.69;79.01;96411.28;1857731;77;26395;-88
2021/01/07 00:16:59;;;;;;;196.82;79.47;;;;;;;-0.64;79.02;96411.63;1858109;77;25806;-89
2021/01/07 00:19:26;;;;;;;231.07;84.70;;;;;;;-0.56;79.04;96412.94;1858145;77;25584;-84
2021/01/07 00:21:54;;;;;;;159.93;69.75;;;;;;;-0.52;78.99;96410.79;1858157;77;26212;-87
2021/01/07 00:24:21;;;;;;;147.53;63.05;;;;;;;-0.45;78.97;96411.27;1858060;77;27497;-91
2021/01/07 00:26:49;;;;;;;149.55;62.40;;;;;;;-0.45;78.92;96417.89;1857918;77;25741;-88
2021/01/07 00:29:16;;;;;;;146.98;66.85;;;;;;;-0.46;78.94;96408.28;1858076;77;25821;-89
2021/01/07 00:31:43;;;;;;;153.87;69.03;;;;;;;-0.43;78.96;96402.66;1858011;77;25606;-87
2021/01/07 00:34:11;;;;;;;160.32;66.55;;;;;;;-0.41;78.97;96405.14;1858147;77;25792;-86
2021/01/07 00:36:38;;;;;;;137.95;65.65;;;;;;;-0.37;78.99;96409.95;1834892;77;27480;-86
2021/01/07 00:39:06;;;;;;;139.72;62.67;;;;;;;-0.32;78.98;96424.52;1854165;77;26300;-91
2021/01/07 00:41:33;;;;;;;131.85;63.63;;;;;;;-0.27;79.02;96426.17;1854702;77;25856;-91
2021/01/07 00:44:01;;;;;;;128.32;63.00;;;;;;;-0.23;78.98;96434.11;1857690;77;25868;-89
2021/01/07 00:46:28;;;;;;;141.57;62.70;;;;;;;-0.28;78.87;96425.84;1840045;77;25782;-86
2021/01/07 00:48:56;;;;;;;140.03;64.37;;;;;;;-0.30;78.91;96422.53;1852677;77;27479;-86
2021/01/07 00:51:33;;;;;;;187.60;80.55;;;;;;;-0.30;78.92;96422.53;1857962;77;25819;-88
2021/01/07 00:54:00;;;;;;;230.03;83.85;;;;;;;-0.28;78.93;96415.23;1858062;77;25749;-92
2021/01/07 00:56:27;;;;;;;192.95;77.65;;;;;;;-0.26;78.96;96423.36;1857869;77;26521;-91
2021/01/07 00:58:55;;;;;;;170.65;71.42;;;;;;;-0.24;79.00;96420.02;1858200;77;25800;-89
2021/01/07 01:01:22;;;;;;;191.70;77.80;;;;;;;-0.21;78.97;96421.51;1858121;77;27541;-91
2021/01/07 01:03:49;;;;;;;220.17;86.35;;;;;;;-0.19;78.95;96422.17;1842073;77;26243;-85
2021/01/07 01:06:17;;;;;;;171.87;74.62;;;;;;;-0.15;78.96;96420.85;1839072;77;25788;-86
2021/01/07 01:08:44;;;;;;;166.47;72.55;;;;;;;-0.11;78.95;96422.15;1858222;77;26439;-88
2021/01/07 01:11:11;;;;;;;146.82;67.40;;;;;;;-0.09;78.94;96422.31;1858243;77;25859;-88
2021/01/07 01:13:39;;;;;;;143.70;67.08;;;;;;;-0.08;78.90;96423.15;1835997;77;27540;-85
2021/01/07 01:16:07;;;;;;;145.28;67.03;;;;;;;-0.06;78.87;96426.46;1826794;77;25818;-86
2021/01/07 01:18:34;;;;;;;140.45;62.95;;;;;;;-0.07;78.86;96419.50;1823969;77;25745;-89
2021/01/07 01:21:01;;;;;;;134.45;64.10;;;;;;;-0.08;78.90;96414.69;1825487;77;25810;-89
2021/01/07 01:23:29;;;;;;;135.82;62.93;;;;;;;-0.07;78.96;96428.28;1824788;78;25770;-87
2021/01/07 01:25:56;;;;;;;146.98;66.87;;;;;;;-0.03;79.04;96422.98;1826866;77;27547;-91
2021/01/07 01:28:23;;;;;;;158.35;68.87;;;;;;;-0.01;79.00;96419.67;1824716;78;26263;-90
2021/01/07 01:30:51;;;;;;;139.92;61.37;;;;;;;-0.06;78.89;96418.50;1826920;77;25762;-86
2021/01/07 01:33:18;;;;;;;135.78;61.20;;;;;;;-0.05;78.95;96412.20;1826844;77;25803;-90
2021/01/07 01:35:45;;;;;;;136.40;61.37;;;;;;;-0.03;78.96;96406.23;1827089;77;25737;-86
2021/01/07 01:38:13;;;;;;;139.03;64.32;;;;;;;-0.05;78.93;96411.70;1812026;78;27301;-84
2021/01/07 01:40:40;;;;;;;143.05;67.50;;;;;;;-0.03;78.96;96414.19;1825407;77;25825;-89
2021/01/07 01:43:08;;;;;;;141.20;63.70;;;;;;;0.03;79.00;96406.03;1826765;77;25769;-92
2021/01/07 01:45:36;;;;;;;127.70;58.30;;;;;;;0.03;78.96;96404.71;1824117;77;26531;-83
2021/01/07 01:48:04;;;;;;;136.07;62.05;;;;;;;0.00;78.94;96400.59;1825186;78;25804;-84
2021/01/07 01:50:32;;;;;;;132.22;61.00;;;;;;;0.03;79.00;96402.06;1824391;78;27754;-87
2021/01/07 01:52:59;;;;;;;132.82;62.08;;;;;;;0.04;79.02;96396.58;1824781;78;25773;-83
2021/01/07 01:55:27;;;;;;;137.10;65.78;;;;;;;0.05;79.00;96403.55;1826141;77;25844;-89
2021/01/07 01:57:54;;;;;;;127.90;61.80;;;;;;;0.05;79.00;96400.89;1826532;78;25706;-89
2021/01/07 02:00:22;;;;;;;137.18;61.33;;;;;;;0.05;79.03;96402.22;1825071;77;25756;-90
2021/01/07 02:02:49;;;;;;;125.60;60.35;;;;;;;0.08;79.05;96396.58;1824448;78;26898;-88
2021/01/07 02:05:16;;;;;;;114.72;56.18;;;;;;;0.07;79.02;96396.25;1824768;77;25824;-86
2021/01/07 02:07:45;;;;;;;127.45;57.95;;;;;;;0.09;79.08;96392.94;1824709;78;25868;-87
2021/01/07 02:10:14;;;;;;;126.55;59.58;;;;;;;0.12;79.13;96391.23;1824577;77;26965;-91
2021/01/07 02:12:47;;;;;;;125.07;59.38;;;;;;;0.15;79.11;96395.38;1826860;77;25802;-91
2021/01/07 02:15:15;;;;;;;110.55;53.42;;;;;;;0.19;79.13;96388.75;1823733;77;27502;-84
2021/01/07 02:17:43;;;;;;;107.20;49.75;;;;;;;0.21;79.10;96384.10;1825540;77;26287;-88
2021/01/07 02:20:14;;;;;;;108.97;50.05;;;;;;;0.22;79.09;96377.30;1826757;77;25741;-86
2021/01/07 02:22:42;;;;;;;97.70;48.05;;;;;;;0.21;79.09;96376.97;1826808;78;25729;-89
2021/01/07 02:25:10;;;;;;;98.85;45.63;;;;;;;0.23;79.12;96381.61;1809804;78;25731;-89
2021/01/07 02:27:37;;;;;;;95.72;47.23;;;;;;;0.19;79.10;96378.96;1813952;78;26708;-91
2021/01/07 02:30:07;;;;;;;98.07;47.15;;;;;;;0.18;79.13;96383.94;1819056;78;26139;-88
2021/01/07 02:32:34;;;;;;;122.00;56.05;;;;;;;0.15;79.14;96379.46;1821505;78;25784;-83
2021/01/07 02:35:01;;;;;;;114.57;54.48;;;;;;;0.09;79.19;96377.02;1825995;77;26303;-88
2021/01/07 02:37:29;;;;;;;127.72;58.68;;;;;;;0.07;79.29;96381.66;1825712;77;25846;-87
2021/01/07 02:39:56;;;;;;;117.60;56.88;;;;;;;0.12;79.35;96380.63;1823683;77;28478;-86
2021/01/07 02:42:26;;;;;;;123.95;58.50;;;;;;;0.17;79.40;96380.95;1824312;77;25745;-91
2021/01/07 02:44:54;;;;;;;128.27;59.98;;;;;;;0.23;79.41;96386.09;1824936;78;25821;-88
2021/01/07 02:47:21;;;;;;;138.52;63.63;;;;;;;0.27;79.43;96388.70;1823532;78;25681;-91
2021/01/07 02:49:48;;;;;;;108.17;51.48;;;;;;;0.28;79.36;96394.34;1813521;78;25710;-84
2021/01/07 02:52:15;;;;;;;105.60;49.03;;;;;;;0.31;79.36;96390.85;1822456;78;28571;-91
2021/01/07 02:54:43;;;;;;;103.97;49.33;;;;;;;0.35;79.35;96390.02;1826045;78;25752;-83
2021/01/07 02:57:10;;;;;;;104.75;50.85;;;;;;;0.39;79.33;96389.16;1814232;78;25736;-86
2021/01/07 02:59:38;;;;;;;98.03;48.10;;;;;;;0.34;79.22;96383.88;1806631;78;26490;-89
2021/01/07 03:02:05;;;;;;;93.12;45.78;;;;;;;0.34;79.25;96385.20;1826914;78;25702;-90
2021/01/07 03:04:32;;;;;;;91.90;45.78;;;;;;;0.36;79.26;96381.86;1826721;77;28367;-92
2021/01/07 03:07:00;;;;;;;92.05;44.53;;;;;;;0.34;79.20;96378.57;1825460;78;25683;-90
2021/01/07 03:09:27;;;;;;;93.27;44.00;;;;;;;0.33;79.24;96382.72;1815980;78;26713;-89
2021/01/07 03:11:55;;;;;;;97.97;46.42;;;;;;;0.33;79.27;96376.91;1823580;78;26461;-89
2021/01/07 03:14:22;;;;;;;93.42;47.62;;;;;;;0.34;79.33;96377.24;1810817;77;25970;-91
2021/01/07 03:16:49;;;;;;;95.22;47.70;;;;;;;0.33;79.33;96379.56;1820390;77;27495;-85
2021/01/07 03:19:17;;;;;;;97.25;47.55;;;;;;;0.35;79.40;96380.23;1809437;77;25758;-91
2021/01/07 03:21:44;;;;;;;79.82;41.30;;;;;;;0.39;79.45;96383.84;1831484;77;25725;-88
2021/01/07 03:24:12;;;;;;;84.95;43.90;;;;;;;0.41;79.50;96379.19;1810411;77;25552;-85
2021/01/07 03:26:39;;;;;;;89.13;45.45;;;;;;;0.42;79.45;96381.67;1809173;77;25783;-89
2021/01/07 03:29:06;;;;;;;89.65;42.70;;;;;;;0.46;79.49;96382.17;1809491;77;27609;-88
2021/01/07 03:31:33;;;;;;;72.25;37.05;;;;;;;0.49;79.48;96387.11;1825812;77;25696;-88
2021/01/07 03:34:01;;;;;;;64.10;33.48;;;;;;;0.44;79.42;96384.99;1839194;77;25680;-85
2021/01/07 03:36:28;;;;;;;68.52;33.88;;;;;;;0.36;79.39;96380.53;1823314;77;25695;-87
2021/01/07 03:38:56;;;;;;;66.17;35.23;;;;;;;0.31;79.43;96376.25;1842723;77;25875;-88
2021/01/07 03:41:23;;;;;;;69.30;37.45;;;;;;;0.27;79.50;96373.61;1831724;77;27485;-89
2021/01/07 03:43:50;;;;;;;73.05;36.20;;;;;;;0.26;79.53;96379.09;1829949;77;26350;-82
2021/01/07 03:46:18;;;;;;;69.17;36.83;;;;;;;0.29;79.67;96374.77;1818926;77;25894;-89
2021/01/07 03:48:45;;;;;;;82.53;44.45;;;;;;;0.34;79.72;96382.55;1842268;77;26905;-83
2021/01/07 03:51:12;;;;;;;88.03;43.83;;;;;;;0.37;79.72;96384.02;1819028;77;25736;-87
2021/01/07 03:53:39;;;;;;;81.53;42.98;;;;;;;0.38;79.70;96382.19;1842409;77;27469;-85
2021/01/07 03:56:07;;;;;;;84.25;43.65;;;;;;;0.38;79.64;96382.19;1818824;77;25857;-87
2021/01/07 03:58:34;;;;;;;83.40;42.15;;;;;;;0.42;79.74;96383.50;1842224;77;25805;-87
2021/01/07 04:01:03;;;;;;;69.77;35.08;;;;;;;0.47;79.80;96381.17;1842378;77;25803;-90
2021/01/07 04:03:31;;;;;;;60.30;34.13;;;;;;;0.48;79.77;96382.33;1831841;77;25765;-87
2021/01/07 04:05:58;;;;;;;68.50;34.45;;;;;;;0.42;79.67;96383.50;1809212;77;27538;-90
2021/01/07 04:08:25;;;;;;;66.77;33.40;;;;;;;0.31;79.68;96384.22;1827066;77;25724;-88
2021/01/07 04:10:53;;;;;;;63.23;32.78;;;;;;;0.25;79.72;96380.91;1799146;77;26371;-87
2021/01/07 04:13:20;;;;;;;66.02;33.63;;;;;;;0.27;79.85;96372.78;1839446;77;25661;-86
2021/01/07 04:15:47;;;;;;;70.85;34.70;;;;;;;0.34;79.95;96385.20;1839204;77;25857;-89
2021/01/07 04:18:15;;;;;;;68.10;35.70;;;;;;;0.40;79.97;96382.34;1823857;77;28510;-86
2021/01/07 04:20:42;;;;;;;66.50;34.30;;;;;;;0.41;79.90;96382.67;1854744;77;26191;-89
2021/01/07 04:23:09;;;;;;;75.52;36.80;;;;;;;0.41;79.88;96389.81;1854720;77;25793;-83
2021/01/07 04:25:37;;;;;;;66.15;33.58;;;;;;;0.43;79.89;96385.16;1845972;77;25716;-87
2021/01/07 04:28:05;;;;;;;65.30;35.35;;;;;;;0.46;79.89;96388.80;1841029;77;25704;-86
2021/01/07 04:30:32;;;;;;;59.75;31.87;;;;;;;0.48;79.91;96389.46;1848805;77;28428;-84
2021/01/07 04:32:59;;;;;;;65.00;33.73;;;;;;;0.45;79.84;96385.82;1838302;77;25903;-84
2021/01/07 04:35:27;;;;;;;66.17;33.15;;;;;;;0.38;79.84;96389.65;1851555;77;25779;-86
2021/01/07 04:37:54;;;;;;;66.22;33.42;;;;;;;0.40;79.91;96393.46;1836052;77;25804;-90
2021/01/07 04:40:21;;;;;;;61.37;33.10;;;;;;;0.44;80.04;96393.45;1855296;76;25843;-90
2021/01/07 04:42:49;;;;;;;56.15;32.63;;;;;;;0.50;80.04;96396.73;1843846;77;27486;-89
2021/01/07 04:45:16;;;;;;;56.08;31.77;;;;;;;0.49;79.98;96394.58;1820562;77;26012;-87
2021/01/07 04:47:50;;;;;;;60.23;33.20;;;;;;;0.51;80.00;96394.41;1854194;77;25772;-90
2021/01/07 04:50:18;;;;;;;61.73;34.20;;;;;;;0.53;80.04;96389.25;1855207;77;25783;-90
2021/01/07 04:52:45;;;;;;;68.15;35.05;;;;;;;0.54;80.03;96390.91;1855241;77;25926;-87
2021/01/07 04:55:13;;;;;;;68.75;35.70;;;;;;;0.52;79.97;96385.44;1836027;77;27591;-84
2021/01/07 04:57:42;;;;;;;66.25;35.50;;;;;;;0.53;80.00;96386.59;1850557;77;25689;-83
2021/01/07 05:00:13;;;;;;;65.72;36.15;;;;;;;0.55;80.02;96387.76;1855240;77;25305;-86
2021/01/07 05:02:41;;;;;;;67.10;36.03;;;;;;;0.54;79.97;96390.08;1831453;76;25726;-83
2021/01/07 05:05:09;;;;;;;60.85;34.67;;;;;;;0.61;80.05;96394.52;1855303;77;25790;-83
2021/01/07 05:07:38;;;;;;;64.30;35.38;;;;;;;0.65;80.03;96389.69;1855216;77;27534;-85
2021/01/07 05:10:09;;;;;;;71.40;35.73;;;;;;;0.68;80.01;96392.00;1854997;77;26129;-83
2021/01/07 05:12:37;;;;;;;66.53;35.60;;;;;;;0.67;79.95;96391.17;1855216;77;27046;-84
2021/01/07 05:15:07;;;;;;;66.00;36.40;;;;;;;0.66;79.90;96392.67;1841761;77;25669;-90
2021/01/07 05:17:39;;;;;;;68.28;35.13;;;;;;;0.65;79.88;96392.34;1824780;77;25474;-89
2021/01/07 05:20:12;;;;;;;66.62;34.45;;;;;;;0.63;79.86;96389.03;1842008;77;28461;-90
2021/01/07 05:22:44;;;;;;;66.15;34.92;;;;;;;0.64;79.89;96389.36;1833224;77;26363;-86
2021/01/07 05:25:13;;;;;;;66.45;35.33;;;;;;;0.64;79.83;96399.48;1825151;77;26510;-88
2021/01/07 05:27:44;;;;;;;71.17;36.15;;;;;;;0.65;79.86;96400.31;1818185;77;25522;-84
2021/01/07 05:30:13;;;;;;;66.35;37.15;;;;;;;0.64;79.85;96398.66;1841860;77;26402;-87
2021/01/07 05:32:43;;;;;;;67.10;36.58;;;;;;;0.66;79.87;96394.00;1830797;77;27568;-87
2021/01/07 05:35:20;;;;;;;68.90;35.43;;;;;;;0.70;79.90;96397.97;1827893;77;26572;-86
2021/01/07 05:37:48;;;;;;;70.17;38.15;;;;;;;0.68;79.86;96394.66;1838574;77;25792;-86
2021/01/07 05:40:15;;;;;;;71.28;38.13;;;;;;;0.68;79.87;96394.66;1841328;77;25825;-89
2021/01/07 05:42:46;;;;;;;76.35;41.02;;;;;;;0.71;79.90;96388.51;1851757;77;25689;-85
2021/01/07 05:45:17;;;;;;;79.67;42.17;;;;;;;0.75;79.90;96391.62;1851632;77;27592;-91
2021/01/07 05:47:51;;;;;;;76.60;41.10;;;;;;;0.79;79.86;96386.30;1842403;77;25887;-84
2021/01/07 05:50:20;;;;;;;80.62;42.13;;;;;;;0.79;79.78;96383.64;1818238;77;25734;-86
2021/01/07 05:52:50;;;;;;;78.42;40.80;;;;;;;0.76;79.65;96390.62;1841644;77;25750;-90
2021/01/07 05:55:19;;;;;;;67.87;38.98;;;;;;;0.70;79.65;96385.52;1837494;77;25708;-84
2021/01/07 05:57:47;;;;;;;76.28;38.65;;;;;;;0.71;79.70;96392.98;1851579;77;27533;-85
2021/01/07 06:00:17;;;;;;;69.90;38.02;;;;;;;0.70;79.74;96387.34;1851640;77;25793;-89
2021/01/07 06:02:46;;;;;;;79.80;40.43;;;;;;;0.71;79.78;96386.34;1828124;77;26215;-87
2021/01/07 06:05:16;;;;;;;70.40;39.30;;;;;;;0.71;79.79;96389.84;1836106;77;26592;-89
2021/01/07 06:07:43;;;;;;;80.28;40.00;;;;;;;0.72;79.77;96393.32;1821267;77;25775;-89
2021/01/07 06:10:14;;;;;;;72.55;41.28;;;;;;;0.74;79.79;96385.98;1851638;77;28439;-90
2021/01/07 06:12:41;;;;;;;77.60;40.65;;;;;;;0.76;79.77;96390.62;1826634;77;25886;-87
2021/01/07 06:15:11;;;;;;;78.50;40.17;;;;;;;0.73;79.67;96389.63;1813106;77;25524;-89
2021/01/07 06:17:39;;;;;;;74.67;40.70;;;;;;;0.70;79.66;96392.66;1816064;77;25649;-87
2021/01/07 06:20:20;;;;;;;81.30;41.60;;;;;;;0.69;79.71;96394.98;1835082;77;25665;-85
2021/01/07 06:22:53;;;;;;;77.67;41.50;;;;;;;0.71;79.74;96395.65;1809428;77;27459;-83
2021/01/07 06:25:24;;;;;;;80.17;42.62;;;;;;;0.73;79.79;96396.27;1834631;77;25712;-87
2021/01/07 06:27:53;;;;;;;74.10;40.38;;;;;;;0.70;79.75;96401.46;1842695;77;25724;-88
2021/01/07 06:30:28;;;;;;;80.30;41.10;;;;;;;0.72;79.78;96402.62;1815680;77;25714;-86
2021/01/07 06:33:06;;;;;;;77.45;40.88;;;;;;;0.72;79.77;96410.58;1825494;77;25790;-85
2021/01/07 06:35:45;;;;;;;78.42;39.98;;;;;;;0.71;79.78;96410.26;1842641;77;28440;-88
2021/01/07 06:38:26;;;;;;;78.50;40.75;;;;;;;0.70;79.80;96409.92;1842376;77;26414;-85
2021/01/07 06:41:00;;;;;;;75.50;40.12;;;;;;;0.73;79.83;96413.54;1823428;77;25725;-89
2021/01/07 06:43:29;;;;;;;75.70;40.75;;;;;;;0.77;79.90;96414.86;1819475;77;25795;-89
2021/01/07 06:45:57;;;;;;;80.07;40.83;;;;;;;0.79;79.88;96423.98;1820895;77;25745;-86
2021/01/07 06:48:34;;;;;;;77.72;40.73;;;;;;;0.81;79.86;96422.81;1803074;77;27664;-86
2021/01/07 06:51:04;;;;;;;89.35;42.65;;;;;;;0.85;79.85;96429.41;1795893;77;25685;-86
2021/01/07 06:53:39;;;;;;;103.05;55.03;;;;;;;0.85;79.79;96431.23;1771269;77;25683;-81
2021/01/07 06:56:19;;;;;;;108.78;58.23;;;;;;;0.78;79.72;96435.11;1817727;77;25831;-84
2021/01/07 06:58:48;;;;;;;113.95;58.85;;;;;;;0.76;79.74;96429.14;1821388;77;25826;-84
2021/01/07 07:01:18;;;;;;;124.02;65.70;;;;;;;0.76;79.81;96436.28;1810934;77;27467;-89
2021/01/07 07:03:54;;;;;;;125.15;64.72;;;;;;;0.69;79.79;96436.98;1816024;77;25752;-83
2021/01/07 07:06:27;;;;;;;120.35;65.65;;;;;;;0.73;79.88;96440.10;1816002;77;25809;-89
2021/01/07 07:08:54;;;;;;;127.30;67.20;;;;;;;0.72;79.93;96439.80;1821321;77;26445;-90
2021/01/07 07:11:36;;;;;;;125.70;69.65;;;;;;;0.72;79.94;96445.11;1820482;77;25687;-88
2021/01/07 07:14:08;;;;;;;132.70;72.85;;;;;;;0.72;79.92;96450.43;1816251;77;27563;-83
2021/01/07 07:16:37;;;;;;;126.62;71.77;;;;;;;0.72;79.95;96454.41;1809994;77;25775;-89
2021/01/07 07:19:07;;;;;;;131.20;73.02;;;;;;;0.73;79.98;96456.04;1830363;77;25302;-89
2021/01/07 07:21:35;;;;;;;126.50;67.62;;;;;;;0.79;80.00;96461.17;1832940;77;25695;-86
2021/01/07 07:24:11;;;;;;;128.82;68.78;;;;;;;0.78;79.94;96463.50;1820235;77;25711;-90
2021/01/07 07:26:41;;;;;;;136.40;75.08;;;;;;;0.74;79.89;96467.00;1842820;77;28546;-86
2021/01/07 07:29:11;;;;;;;138.10;79.32;;;;;;;0.74;79.93;96469.66;1842568;77;26143;-85
2021/01/07 07:34:31;;;;;;;134.22;74.03;;;;;;;0.84;80.06;96480.92;1873141;76;35244;-88
2021/01/07 07:37:00;;;;;;;145.60;76.10;;;;;;;0.84;80.07;96478.77;1828664;77;25711;-85
2021/01/07 07:39:28;;;;;;;140.82;77.95;;;;;;;0.84;80.04;96488.89;1844436;77;28539;-89
2021/01/07 07:44:45;;;;;;;166.90;95.22;;;;;;;0.96;80.08;96495.48;1855659;76;35200;-86
2021/01/07 07:47:12;;;;;;;185.00;106.80;;;;;;;0.93;80.04;96502.45;1837057;77;25892;-88
2021/01/07 07:49:40;;;;;;;179.07;104.87;;;;;;;0.89;79.96;96514.42;1831183;77;27705;-88
2021/01/07 07:52:07;;;;;;;173.32;98.27;;;;;;;0.89;79.98;96509.11;1814353;77;25867;-87
2021/01/07 07:54:35;;;;;;;161.75;86.82;;;;;;;0.93;80.01;96512.26;1834557;77;25842;-86
2021/01/07 07:57:03;;;;;;;163.15;89.70;;;;;;;0.92;79.99;96514.09;1818964;77;25686;-85
2021/01/07 07:59:30;;;;;;;150.78;86.32;;;;;;;0.94;80.04;96518.73;1809844;77;25834;-85
2021/01/07 08:01:58;;;;;;;157.45;85.40;;;;;;;0.95;80.00;96520.89;1852499;77;28631;-89
2021/01/07 08:04:26;;;;;;;166.82;89.47;;;;;;;0.92;79.94;96523.88;1824118;77;26482;-86
2021/01/07 08:06:54;;;;;;;155.97;87.97;;;;;;;0.88;79.96;96526.05;1834402;77;26291;-87
2021/01/07 08:09:22;;;;;;;153.00;84.60;;;;;;;0.88;79.98;96519.91;1852398;77;26028;-87
2021/01/07 08:11:55;;;;;;;157.90;86.40;;;;;;;0.89;80.03;96526.88;1852531;77;25880;-84
2021/01/07 08:14:25;;;;;;;161.45;91.25;;;;;;;0.87;80.01;96531.03;1811811;77;27497;-88
2021/01/07 08:17:01;;;;;;;159.05;88.07;;;;;;;0.89;80.07;96526.88;1825370;77;25798;-88
2021/01/07 08:19:36;;;;;;;158.25;87.80;;;;;;;0.90;80.11;96524.05;1837256;77;25698;-85
2021/01/07 08:22:04;;;;;;;155.82;88.25;;;;;;;0.88;80.08;96530.53;1822178;77;26455;-90
2021/01/07 08:24:32;;;;;;;158.45;90.05;;;;;;;0.93;80.20;96535.67;1818857;77;25713;-90
2021/01/07 08:27:07;;;;;;;160.43;88.82;;;;;;;0.98;80.20;96537.30;1823194;77;27660;-94
2021/01/07 08:29:38;;;;;;;170.17;91.70;;;;;;;0.96;80.13;96534.50;1852390;77;25776;-86
2021/01/07 08:32:08;;;;;;;163.45;88.65;;;;;;;0.95;80.13;96537.66;1848109;77;25884;-89
2021/01/07 08:34:36;;;;;;;160.12;87.90;;;;;;;0.97;80.18;96540.12;1818922;77;25706;-87
2021/01/07 08:37:21;;;;;;;160.00;86.80;;;;;;;1.00;80.18;96545.09;1842488;77;25762;-91
2021/01/07 08:39:49;;;;;;;164.80;88.20;;;;;;;0.98;80.20;96537.30;1836146;77;27676;-90
2021/01/07 08:42:17;;;;;;;154.90;86.05;;;;;;;0.96;80.20;96543.80;1852192;77;26125;-86
2021/01/07 08:44:45;;;;;;;160.85;86.12;;;;;;;0.99;80.27;96544.27;1830028;77;25778;-88
2021/01/07 08:47:24;;;;;;;158.05;87.65;;;;;;;1.01;80.28;96550.74;1835165;77;25808;-91
2021/01/07 08:50:13;;;;;;;161.43;88.30;;;;;;;1.01;80.29;96548.91;1828872;77;25794;-85
2021/01/07 08:52:56;;;;;;;160.55;88.85;;;;;;;1.05;80.33;96545.42;1841663;77;28426;-86
2021/01/07 08:55:52;;;;;;;181.35;100.40;;;;;;;1.05;80.32;96544.92;1824845;76;25660;-88
2021/01/07 08:58:24;;;;;;;179.68;104.00;;;;;;;1.07;80.34;96546.08;1810842;77;25720;-88
2021/01/07 09:00:54;;;;;;;200.28;108.97;;;;;;;1.13;80.35;96552.02;1841966;77;25666;-91
2021/01/07 09:03:22;;;;;;;207.62;114.15;;;;;;;1.14;80.32;96551.52;1823067;77;26325;-90
2021/01/07 09:05:50;;;;;;;228.42;126.27;;;;;;;1.15;80.28;96553.17;1811863;77;27524;-91
2021/01/07 09:08:19;;;;;;;199.72;107.83;;;;;;;1.19;80.31;96554.00;1791882;79;25785;-90
2021/01/07 09:10:47;;;;;;;132.85;68.85;;;;;;;1.25;80.34;96556.45;1801926;77;25348;-87
2021/01/07 09:13:22;;;;;;;113.80;59.03;;;;;;;1.20;80.17;96560.14;1834225;77;25794;-87
2021/01/07 09:15:50;;;;;;;111.25;59.30;;;;;;;1.14;80.15;96549.69;1842822;77;25688;-90
2021/01/07 09:18:20;;;;;;;99.67;51.95;;;;;;;1.11;80.14;96558.50;1794773;77;28359;-87
2021/01/07 09:20:48;;;;;;;77.97;37.95;;;;;;;1.08;80.15;96557.05;1809574;77;25688;-91
2021/01/07 09:23:16;;;;;;;56.77;30.75;;;;;;;1.05;80.05;96550.73;1809580;77;25874;-88
2021/01/07 09:25:45;;;;;;;43.40;24.05;;;;;;;0.87;79.91;96553.62;1820071;77;25719;-91
2021/01/07 09:28:12;;;;;;;36.15;20.55;;;;;;;0.71;79.84;96556.34;1821899;77;25690;-85
2021/01/07 09:30:40;;;;;;;34.63;18.65;;;;;;;0.57;79.93;96549.08;1817673;77;27499;-89
2021/01/07 09:33:07;;;;;;;29.07;16.50;;;;;;;0.49;79.95;96552.56;1824179;77;26617;-85
2021/01/07 09:35:35;;;;;;;28.65;15.78;;;;;;;0.38;79.91;96556.91;1838519;77;25807;-84
2021/01/07 09:38:03;;;;;;;33.05;16.95;;;;;;;0.27;79.98;96559.41;1842788;77;25844;-85
2021/01/07 09:40:31;;;;;;;32.17;18.27;;;;;;;0.27;80.20;96564.72;1839639;77;25294;-87
2021/01/07 09:42:58;;;;;;;32.23;17.48;;;;;;;0.34;80.38;96560.41;1823111;77;27489;-85
2021/01/07 09:45:26;;;;;;;28.83;15.45;;;;;;;0.43;80.42;96565.70;1819318;77;26414;-89
2021/01/07 09:47:53;;;;;;;26.35;13.03;;;;;;;0.50;80.44;96562.69;1842736;77;25748;-83
2021/01/07 09:50:22;;;;;;;22.60;13.43;;;;;;;0.58;80.40;96567.50;1821331;77;25873;-86
2021/01/07 09:52:50;;;;;;;20.35;10.40;;;;;;;0.63;80.32;96566.97;1827050;77;25718;-88
2021/01/07 09:55:17;;;;;;;17.67;10.93;;;;;;;0.53;80.04;96566.34;1819523;77;27718;-88
2021/01/07 09:57:48;;;;;;;16.62;9.18;;;;;;;0.42;79.99;96568.85;1836373;77;25630;-84
2021/01/07 10:00:18;;;;;;;15.80;9.07;;;;;;;0.41;80.11;96571.67;1827381;77;26395;-88
2021/01/07 10:02:45;;;;;;;17.60;9.50;;;;;;;0.44;80.15;96568.19;1837786;77;25663;-84
2021/01/07 10:05:13;;;;;;;17.75;10.43;;;;;;;0.44;80.18;96572.67;1824913;77;25723;-87
2021/01/07 10:07:41;;;;;;;14.93;9.08;;;;;;;0.47;80.17;96576.33;1819419;77;28653;-86
2021/01/07 10:10:10;;;;;;;17.48;9.60;;;;;;;0.43;79.99;96569.68;1842657;77;26211;-86
2021/01/07 10:12:37;;;;;;;20.82;10.80;;;;;;;0.36;79.96;96574.85;1819478;77;25675;-84
2021/01/07 10:15:06;;;;;;;16.95;9.95;;;;;;;0.37;80.02;96565.86;1842648;77;25800;-87
2021/01/07 10:17:34;;;;;;;20.43;10.75;;;;;;;0.34;79.99;96571.03;1827822;77;25605;-85
2021/01/07 10:20:01;;;;;;;17.17;10.10;;;;;;;0.24;79.96;96571.68;1810869;77;28386;-88
2021/01/07 10:22:31;;;;;;;18.23;10.55;;;;;;;0.25;80.09;96568.53;1835816;77;25891;-87
2021/01/07 10:24:59;;;;;;;21.30;10.38;;;;;;;0.24;80.08;96575.66;1842662;77;25690;-85
2021/01/07 10:27:30;;;;;;;20.10;12.03;;;;;;;0.26;80.11;96573.67;1831813;77;25856;-85
2021/01/07 10:29:59;;;;;;;20.32;11.90;;;;;;;0.16;80.01;96570.38;1837851;77;25701;-87
2021/01/07 10:32:28;;;;;;;20.65;11.80;;;;;;;0.16;80.20;96573.52;1820101;77;27479;-86
2021/01/07 10:34:55;;;;;;;19.12;11.03;;;;;;;0.25;80.31;96572.02;1833795;77;26681;-87
2021/01/07 10:37:25;;;;;;;20.77;11.68;;;;;;;0.29;80.28;96576.00;1811353;77;25906;-86
2021/01/07 10:39:55;;;;;;;24.12;12.45;;;;;;;0.35;80.26;96575.35;1825396;77;26402;-85
2021/01/07 10:42:23;;;;;;;20.88;12.50;;;;;;;0.40;80.25;96577.48;1834589;77;25760;-85
2021/01/07 10:44:52;;;;;;;33.70;17.65;;;;;;;0.45;80.20;96580.97;1826647;77;27277;-87
2021/01/07 10:47:20;;;;;;;26.07;14.58;;;;;;;0.54;80.19;96589.24;1814878;77;25790;-89
2021/01/07 10:49:48;;;;;;;18.82;11.73;;;;;;;0.67;80.17;96584.23;1823700;77;25779;-88
2021/01/07 10:52:35;;;;;;;22.17;12.75;;;;;;;0.74;80.08;96586.53;1830069;77;25658;-87
2021/01/07 10:55:27;;;;;;;23.62;13.65;;;;;;;0.74;79.84;96587.86;1837501;77;25777;-89
2021/01/07 10:58:17;;;;;;;27.27;14.23;;;;;;;0.73;79.74;96582.22;1842915;77;27471;-85
2021/01/07 11:01:12;;;;;;;20.97;12.50;;;;;;;0.79;79.75;96589.52;1825438;77;25763;-88
2021/01/07 11:03:48;;;;;;;25.57;13.00;;;;;;;0.78;79.70;96585.20;1837334;77;25650;-86
2021/01/07 11:06:23;;;;;;;23.75;11.53;;;;;;;0.88;79.69;96591.14;1827593;77;25788;-84
2021/01/07 11:09:15;;;;;;;20.50;11.40;;;;;;;0.92;79.53;96587.16;1811005;77;25375;-86
2021/01/07 11:11:53;;;;;;;21.12;11.57;;;;;;;0.94;79.43;96581.17;1822545;77;27485;-83
2021/01/07 11:14:27;;;;;;;22.17;11.60;;;;;;;1.03;79.41;96588.11;1819948;77;25766;-85
2021/01/07 11:17:01;;;;;;;27.73;12.25;;;;;;;1.07;79.32;96589.44;1828429;77;25801;-85
2021/01/07 11:19:31;;;;;;;32.93;14.53;;;;;;;1.07;79.17;96590.77;1820456;77;25796;-84
2021/01/07 11:22:07;;;;;;;40.40;18.82;;;;;;;1.16;79.20;96582.75;1803530;77;26311;-81
2021/01/07 11:24:34;;;;;;;25.97;14.33;;;;;;;1.22;79.15;96588.19;1827221;77;27544;-82
2021/01/07 11:27:04;;;;;;;63.87;25.77;;;;;;;1.30;79.11;96584.68;1811383;77;26341;-82
2021/01/07 11:29:35;;;;;;;48.73;22.90;;;;;;;1.28;78.92;96587.51;1838560;77;25729;-81
2021/01/07 11:32:03;;;;;;;35.45;16.52;;;;;;;1.31;78.86;96579.69;1838831;77;25661;-83
2021/01/07 11:34:33;;;;;;;26.60;15.40;;;;;;;1.42;78.91;96576.64;1801866;77;25813;-84
2021/01/07 11:37:38;;;;;;;28.10;15.00;;;;;;;1.48;78.72;96578.59;1824351;77;28455;-82